sensor_id;sensor_type;location;lat;lon;timestamp;pressure;altitude;pressure_sealevel;temperature;humidity
73692;BME280;61996;49.910;35.562;2023-08-06T00:01:32;99284.75;;;25.49;61.79
73692;BME280;61996;49.910;35.562;2023-08-06T00:04:35;99287.19;;;25.44;61.80
73692;BME280;61996;49.910;35.562;2023-08-06T00:07:38;99282.63;;;25.08;63.22
73692;BME280;61996;49.910;35.562;2023-08-06T00:10:41;99283.78;;;25.35;62.03
73692;BME280;61996;49.910;35.562;2023-08-06T00:13:45;99282.81;;;25.43;61.59
73692;BME280;61996;49.910;35.562;2023-08-06T00:16:48;99285.31;;;25.45;61.93
73692;BME280;61996;49.910;35.562;2023-08-06T00:19:51;99285.91;;;25.40;61.67
73692;BME280;61996;49.910;35.562;2023-08-06T00:22:54;99279.91;;;25.23;62.30
73692;BME280;61996;49.910;35.562;2023-08-06T00:25:56;99269.09;;;25.38;61.69
73692;BME280;61996;49.910;35.562;2023-08-06T00:29:01;99268.34;;;25.44;61.37
73692;BME280;61996;49.910;35.562;2023-08-06T00:32:04;99274.03;;;25.34;62.10
73692;BME280;61996;49.910;35.562;2023-08-06T00:35:07;99269.78;;;25.25;62.55
73692;BME280;61996;49.910;35.562;2023-08-06T00:38:09;99272.56;;;25.17;62.58
73692;BME280;61996;49.910;35.562;2023-08-06T00:41:12;99266.94;;;25.12;63.21
73692;BME280;61996;49.910;35.562;2023-08-06T00:44:16;99258.28;;;25.17;63.13
73692;BME280;61996;49.910;35.562;2023-08-06T00:47:19;99254.03;;;25.07;63.57
73692;BME280;61996;49.910;35.562;2023-08-06T00:50:22;99251.44;;;25.14;63.10
73692;BME280;61996;49.910;35.562;2023-08-06T00:53:25;99245.13;;;25.07;63.37
73692;BME280;61996;49.910;35.562;2023-08-06T00:56:28;99240.97;;;25.04;63.44
73692;BME280;61996;49.910;35.562;2023-08-06T00:59:32;99238.63;;;25.01;63.85
73692;BME280;61996;49.910;35.562;2023-08-06T01:02:36;99244.94;;;25.08;63.30
73692;BME280;61996;49.910;35.562;2023-08-06T01:05:39;99241.22;;;24.95;64.00
73692;BME280;61996;49.910;35.562;2023-08-06T01:08:44;99234.28;;;25.00;64.06
73692;BME280;61996;49.910;35.562;2023-08-06T01:11:52;99235.66;;;24.96;63.84
73692;BME280;61996;49.910;35.562;2023-08-06T01:15:02;99240.59;;;24.93;64.28
73692;BME280;61996;49.910;35.562;2023-08-06T01:18:07;99239.75;;;24.92;64.26
73692;BME280;61996;49.910;35.562;2023-08-06T01:21:11;99238.00;;;24.84;64.12
73692;BME280;61996;49.910;35.562;2023-08-06T01:24:14;99235.13;;;24.86;64.20
73692;BME280;61996;49.910;35.562;2023-08-06T01:27:19;99232.53;;;24.78;64.96
73692;BME280;61996;49.910;35.562;2023-08-06T01:30:25;99239.03;;;24.83;64.47
73692;BME280;61996;49.910;35.562;2023-08-06T01:33:28;99236.50;;;24.82;64.32
73692;BME280;61996;49.910;35.562;2023-08-06T01:36:35;99236.50;;;24.82;64.56
73692;BME280;61996;49.910;35.562;2023-08-06T01:39:39;99231.53;;;24.79;64.87
73692;BME280;61996;49.910;35.562;2023-08-06T01:42:42;99231.53;;;24.79;64.30
73692;BME280;61996;49.910;35.562;2023-08-06T01:45:45;99227.91;;;24.72;64.35
73692;BME280;61996;49.910;35.562;2023-08-06T01:48:48;99233.19;;;24.65;64.63
73692;BME280;61996;49.910;35.562;2023-08-06T01:51:52;99230.91;;;24.62;64.74
73692;BME280;61996;49.910;35.562;2023-08-06T01:54:55;99226.78;;;24.66;64.77
73692;BME280;61996;49.910;35.562;2023-08-06T01:57:58;99219.75;;;24.65;64.34
73692;BME280;61996;49.910;35.562;2023-08-06T02:01:01;99227.63;;;24.67;64.39
73692;BME280;61996;49.910;35.562;2023-08-06T02:04:04;99228.19;;;24.62;64.69
73692;BME280;61996;49.910;35.562;2023-08-06T02:07:08;99231.34;;;24.66;64.43
73692;BME280;61996;49.910;35.562;2023-08-06T02:10:11;99223.16;;;24.74;64.20
73692;BME280;61996;49.910;35.562;2023-08-06T02:13:14;99227.44;;;24.68;64.57
73692;BME280;61996;49.910;35.562;2023-08-06T02:16:16;99223.56;;;24.71;64.54
73692;BME280;61996;49.910;35.562;2023-08-06T02:19:19;99220.22;;;24.69;64.84
73692;BME280;61996;49.910;35.562;2023-08-06T02:22:23;99230.13;;;24.68;64.33
73692;BME280;61996;49.910;35.562;2023-08-06T02:25:27;99221.06;;;24.69;64.04
73692;BME280;61996;49.910;35.562;2023-08-06T02:28:30;99223.75;;;24.69;64.37
73692;BME280;61996;49.910;35.562;2023-08-06T02:31:33;99221.31;;;24.59;64.43
73692;BME280;61996;49.910;35.562;2023-08-06T02:34:36;99225.41;;;24.55;64.47
73692;BME280;61996;49.910;35.562;2023-08-06T02:37:40;99209.44;;;24.54;64.51
73692;BME280;61996;49.910;35.562;2023-08-06T02:40:43;99215.03;;;24.52;64.43
73692;BME280;61996;49.910;35.562;2023-08-06T02:43:47;99206.03;;;24.60;64.65
73692;BME280;61996;49.910;35.562;2023-08-06T02:46:49;99214.19;;;24.67;64.57
73692;BME280;61996;49.910;35.562;2023-08-06T02:49:52;99207.88;;;24.59;64.64
73692;BME280;61996;49.910;35.562;2023-08-06T02:52:56;99214.47;;;24.72;64.96
73692;BME280;61996;49.910;35.562;2023-08-06T02:55:59;99213.63;;;24.71;64.50
73692;BME280;61996;49.910;35.562;2023-08-06T02:59:02;99222.41;;;24.80;64.34
73692;BME280;61996;49.910;35.562;2023-08-06T03:02:05;99216.31;;;24.86;64.13
73692;BME280;61996;49.910;35.562;2023-08-06T03:05:08;99219.53;;;24.81;64.17
73692;BME280;61996;49.910;35.562;2023-08-06T03:08:12;99213.91;;;24.76;64.16
73692;BME280;61996;49.910;35.562;2023-08-06T03:11:15;99213.41;;;24.87;64.05
73692;BME280;61996;49.910;35.562;2023-08-06T03:14:18;99216.69;;;24.83;64.00
73692;BME280;61996;49.910;35.562;2023-08-06T03:17:21;99221.97;;;24.91;63.63
73692;BME280;61996;49.910;35.562;2023-08-06T03:20:25;99218.78;;;24.87;63.96
73692;BME280;61996;49.910;35.562;2023-08-06T03:23:29;99219.91;;;24.93;64.10
73692;BME280;61996;49.910;35.562;2023-08-06T03:26:32;99218.59;;;24.89;63.90
73692;BME280;61996;49.910;35.562;2023-08-06T03:29:35;99218.13;;;25.00;63.83
73692;BME280;61996;49.910;35.562;2023-08-06T03:32:38;99219.25;;;24.91;63.61
73692;BME280;61996;49.910;35.562;2023-08-06T03:35:41;99215.16;;;24.95;63.67
73692;BME280;61996;49.910;35.562;2023-08-06T03:38:45;99220.81;;;25.00;63.76
73692;BME280;61996;49.910;35.562;2023-08-06T03:41:48;99216.06;;;25.02;64.04
73692;BME280;61996;49.910;35.562;2023-08-06T03:44:51;99228.69;;;25.17;63.27
73692;BME280;61996;49.910;35.562;2023-08-06T03:47:54;99218.31;;;25.13;63.62
73692;BME280;61996;49.910;35.562;2023-08-06T03:50:57;99213.31;;;25.10;63.58
73692;BME280;61996;49.910;35.562;2023-08-06T03:54:03;99216.25;;;25.15;63.62
73692;BME280;61996;49.910;35.562;2023-08-06T03:57:06;99221.28;;;25.19;63.48
73692;BME280;61996;49.910;35.562;2023-08-06T04:00:09;99209.09;;;25.23;62.96
73692;BME280;61996;49.910;35.562;2023-08-06T04:03:12;99215.06;;;25.18;63.34
73692;BME280;61996;49.910;35.562;2023-08-06T04:06:15;99208.91;;;25.24;62.97
73692;BME280;61996;49.910;35.562;2023-08-06T04:09:19;99216.81;;;25.26;62.97
73692;BME280;61996;49.910;35.562;2023-08-06T04:12:22;99217.25;;;25.29;62.84
73692;BME280;61996;49.910;35.562;2023-08-06T04:15:25;99207.13;;;25.31;62.72
73692;BME280;61996;49.910;35.562;2023-08-06T04:18:28;99198.41;;;25.29;63.25
73692;BME280;61996;49.910;35.562;2023-08-06T04:21:31;99206.94;;;25.33;62.90
73692;BME280;61996;49.910;35.562;2023-08-06T04:24:35;99202.59;;;25.32;63.27
73692;BME280;61996;49.910;35.562;2023-08-06T04:27:38;99204.88;;;25.35;62.72
73692;BME280;61996;49.910;35.562;2023-08-06T04:30:43;99197.00;;;25.33;63.03
73692;BME280;61996;49.910;35.562;2023-08-06T04:33:46;99200.41;;;25.42;62.41
73692;BME280;61996;49.910;35.562;2023-08-06T04:36:48;99194.44;;;25.47;62.74
73692;BME280;61996;49.910;35.562;2023-08-06T04:39:53;99203.34;;;25.47;62.96
73692;BME280;61996;49.910;35.562;2023-08-06T04:42:56;99197.56;;;25.50;62.55
73692;BME280;61996;49.910;35.562;2023-08-06T04:45:59;99199.22;;;25.51;62.77
73692;BME280;61996;49.910;35.562;2023-08-06T04:49:02;99197.22;;;25.53;62.59
73692;BME280;61996;49.910;35.562;2023-08-06T04:52:05;99192.25;;;25.57;62.21
73692;BME280;61996;49.910;35.562;2023-08-06T04:55:09;99181.47;;;25.57;62.54
73692;BME280;61996;49.910;35.562;2023-08-06T04:58:12;99188.34;;;25.59;62.59
73692;BME280;61996;49.910;35.562;2023-08-06T05:01:15;99185.25;;;25.62;62.27
73692;BME280;61996;49.910;35.562;2023-08-06T05:04:18;99171.41;;;25.65;62.63
73692;BME280;61996;49.910;35.562;2023-08-06T05:07:21;99168.84;;;25.79;61.89
73692;BME280;61996;49.910;35.562;2023-08-06T05:10:25;99172.38;;;25.79;61.72
73692;BME280;61996;49.910;35.562;2023-08-06T05:13:29;99166.41;;;25.84;61.34
73692;BME280;61996;49.910;35.562;2023-08-06T05:16:31;99176.16;;;25.85;61.68
73692;BME280;61996;49.910;35.562;2023-08-06T05:19:34;99173.09;;;25.88;61.74
73692;BME280;61996;49.910;35.562;2023-08-06T05:22:37;99174.53;;;25.90;61.75
73692;BME280;61996;49.910;35.562;2023-08-06T05:25:41;99162.72;;;25.91;61.65
73692;BME280;61996;49.910;35.562;2023-08-06T05:28:44;99160.66;;;25.93;61.37
73692;BME280;61996;49.910;35.562;2023-08-06T05:31:47;99158.63;;;25.95;61.38
73692;BME280;61996;49.910;35.562;2023-08-06T05:34:50;99160.09;;;25.98;61.18
73692;BME280;61996;49.910;35.562;2023-08-06T05:37:53;99152.00;;;25.98;61.02
73692;BME280;61996;49.910;35.562;2023-08-06T05:40:57;99153.66;;;25.99;61.33
73692;BME280;61996;49.910;35.562;2023-08-06T05:44:00;99147.06;;;26.02;61.04
73692;BME280;61996;49.910;35.562;2023-08-06T05:47:05;99140.66;;;26.03;61.06
73692;BME280;61996;49.910;35.562;2023-08-06T05:50:08;99145.84;;;26.04;60.94
73692;BME280;61996;49.910;35.562;2023-08-06T05:53:11;99141.28;;;26.05;60.84
73692;BME280;61996;49.910;35.562;2023-08-06T05:56:15;99142.94;;;26.06;60.96
73692;BME280;61996;49.910;35.562;2023-08-06T05:59:18;99148.97;;;26.08;60.76
73692;BME280;61996;49.910;35.562;2023-08-06T06:02:21;99152.31;;;26.10;60.78
73692;BME280;61996;49.910;35.562;2023-08-06T06:05:24;99151.28;;;26.11;60.83
73692;BME280;61996;49.910;35.562;2023-08-06T06:08:27;99142.16;;;26.12;61.01
73692;BME280;61996;49.910;35.562;2023-08-06T06:11:31;99146.72;;;26.11;60.64
73692;BME280;61996;49.910;35.562;2023-08-06T06:14:34;99140.06;;;26.14;60.93
73692;BME280;61996;49.910;35.562;2023-08-06T06:17:37;99144.63;;;26.13;60.92
73692;BME280;61996;49.910;35.562;2023-08-06T06:20:40;99144.47;;;26.15;60.79
73692;BME280;61996;49.910;35.562;2023-08-06T06:23:42;99143.44;;;26.16;60.79
73692;BME280;61996;49.910;35.562;2023-08-06T06:26:47;99135.13;;;26.17;60.70
73692;BME280;61996;49.910;35.562;2023-08-06T06:29:49;99139.69;;;26.17;60.47
73692;BME280;61996;49.910;35.562;2023-08-06T06:32:54;99137.63;;;26.19;60.76
73692;BME280;61996;49.910;35.562;2023-08-06T06:35:56;99130.38;;;26.19;60.68
73692;BME280;61996;49.910;35.562;2023-08-06T06:38:59;99132.03;;;26.20;60.58
73692;BME280;61996;49.910;35.562;2023-08-06T06:42:04;99131.19;;;26.20;60.54
73692;BME280;61996;49.910;35.562;2023-08-06T06:45:08;99126.66;;;26.20;60.63
73692;BME280;61996;49.910;35.562;2023-08-06T06:48:11;99127.31;;;26.22;60.62
73692;BME280;61996;49.910;35.562;2023-08-06T06:51:13;99117.34;;;26.23;60.52
73692;BME280;61996;49.910;35.562;2023-08-06T06:54:16;99116.53;;;26.22;60.65
73692;BME280;61996;49.910;35.562;2023-08-06T06:57:20;99117.16;;;26.24;60.69
73692;BME280;61996;49.910;35.562;2023-08-06T07:00:23;99114.44;;;26.24;60.52
73692;BME280;61996;49.910;35.562;2023-08-06T07:03:26;99112.38;;;26.27;59.98
73692;BME280;61996;49.910;35.562;2023-08-06T07:06:29;99114.03;;;26.28;60.19
73692;BME280;61996;49.910;35.562;2023-08-06T07:09:32;99113.19;;;26.27;60.39
73692;BME280;61996;49.910;35.562;2023-08-06T07:12:36;99108.66;;;26.28;60.15
73692;BME280;61996;49.910;35.562;2023-08-06T07:15:39;99105.94;;;26.28;59.96
73692;BME280;61996;49.910;35.562;2023-08-06T07:18:42;99106.59;;;26.30;60.05
73692;BME280;61996;49.910;35.562;2023-08-06T07:21:45;99103.91;;;26.30;60.16
73692;BME280;61996;49.910;35.562;2023-08-06T07:24:47;99086.06;;;26.29;60.10
73692;BME280;61996;49.910;35.562;2023-08-06T07:27:52;99097.47;;;26.31;60.09
73692;BME280;61996;49.910;35.562;2023-08-06T07:30:54;99088.34;;;26.32;60.22
73692;BME280;61996;49.910;35.562;2023-08-06T07:33:57;99084.63;;;26.33;59.91
73692;BME280;61996;49.910;35.562;2023-08-06T07:37:00;99080.88;;;26.34;59.99
73692;BME280;61996;49.910;35.562;2023-08-06T07:40:03;99080.06;;;26.33;60.20
73692;BME280;61996;49.910;35.562;2023-08-06T07:43:08;99078.19;;;26.34;59.96
73692;BME280;61996;49.910;35.562;2023-08-06T07:46:11;99077.16;;;26.35;60.17
73692;BME280;61996;49.910;35.562;2023-08-06T07:49:15;99060.81;;;26.36;59.73
73692;BME280;61996;49.910;35.562;2023-08-06T07:52:17;99060.81;;;26.36;59.87
73692;BME280;61996;49.910;35.562;2023-08-06T07:55:20;99058.94;;;26.37;59.87
73692;BME280;61996;49.910;35.562;2023-08-06T07:58:25;99048.97;;;26.37;59.75
73692;BME280;61996;49.910;35.562;2023-08-06T08:01:28;99050.66;;;26.38;60.06
73692;BME280;61996;49.910;35.562;2023-08-06T08:04:31;99057.91;;;26.38;60.03
73692;BME280;61996;49.910;35.562;2023-08-06T08:07:33;99047.78;;;26.40;59.94
73692;BME280;61996;49.910;35.562;2023-08-06T08:10:36;99045.06;;;26.40;59.92
73692;BME280;61996;49.910;35.562;2023-08-06T08:13:41;99045.91;;;26.40;59.97
73692;BME280;61996;49.910;35.562;2023-08-06T08:16:44;99056.47;;;26.42;60.10
73692;BME280;61996;49.910;35.562;2023-08-06T08:19:47;99055.47;;;26.43;60.21
73692;BME280;61996;49.910;35.562;2023-08-06T08:22:50;99050.91;;;26.43;59.82
73692;BME280;61996;49.910;35.562;2023-08-06T08:25:52;99044.47;;;26.44;60.24
73692;BME280;61996;49.910;35.562;2023-08-06T08:28:57;99042.81;;;26.43;59.74
73692;BME280;61996;49.910;35.562;2023-08-06T08:32:00;99048.00;;;26.45;60.06
73692;BME280;61996;49.910;35.562;2023-08-06T08:35:03;99045.09;;;26.46;60.16
73692;BME280;61996;49.910;35.562;2023-08-06T08:38:06;99038.66;;;26.47;59.97
73692;BME280;61996;49.910;35.562;2023-08-06T08:41:09;99037.84;;;26.47;59.79
73692;BME280;61996;49.910;35.562;2023-08-06T08:44:13;99031.41;;;26.48;59.80
73692;BME280;61996;49.910;35.562;2023-08-06T08:47:19;99035.75;;;26.49;59.84
73692;BME280;61996;49.910;35.562;2023-08-06T08:50:22;99025.84;;;26.49;60.06
73692;BME280;61996;49.910;35.562;2023-08-06T08:53:24;99023.97;;;26.50;59.84
73692;BME280;61996;49.910;35.562;2023-08-06T08:56:27;99027.50;;;26.50;59.93
73692;BME280;61996;49.910;35.562;2023-08-06T08:59:32;99026.25;;;26.53;59.99
73692;BME280;61996;49.910;35.562;2023-08-06T09:02:35;99030.81;;;26.53;59.75
73692;BME280;61996;49.910;35.562;2023-08-06T09:05:41;99018.16;;;26.53;59.50
73692;BME280;61996;49.910;35.562;2023-08-06T09:08:47;99017.94;;;26.55;59.96
73692;BME280;61996;49.910;35.562;2023-08-06T09:11:53;99016.91;;;26.56;59.99
73692;BME280;61996;49.910;35.562;2023-08-06T09:15:01;99022.13;;;26.57;60.02
73692;BME280;61996;49.910;35.562;2023-08-06T09:18:09;99012.16;;;26.58;59.98
73692;BME280;61996;49.910;35.562;2023-08-06T09:21:13;99010.28;;;26.58;59.84
73692;BME280;61996;49.910;35.562;2023-08-06T09:24:16;99004.69;;;26.60;59.89
73692;BME280;61996;49.910;35.562;2023-08-06T09:27:19;99005.50;;;26.60;59.55
73692;BME280;61996;49.910;35.562;2023-08-06T09:30:30;98996.38;;;26.61;59.67
73692;BME280;61996;49.910;35.562;2023-08-06T09:33:34;99002.22;;;26.65;60.12
73692;BME280;61996;49.910;35.562;2023-08-06T09:36:39;98987.06;;;26.64;60.26
73692;BME280;61996;49.910;35.562;2023-08-06T09:39:42;98987.69;;;26.66;59.98
73692;BME280;61996;49.910;35.562;2023-08-06T09:42:45;98993.91;;;26.66;59.54
73692;BME280;61996;49.910;35.562;2023-08-06T09:45:50;98979.38;;;26.67;59.44
73692;BME280;61996;49.910;35.562;2023-08-06T09:48:53;98980.00;;;26.69;59.56
73692;BME280;61996;49.910;35.562;2023-08-06T09:51:56;98980.66;;;26.71;59.55
73692;BME280;61996;49.910;35.562;2023-08-06T09:55:01;98976.91;;;26.72;59.41
73692;BME280;61996;49.910;35.562;2023-08-06T09:58:05;98970.47;;;26.73;59.75
73692;BME280;61996;49.910;35.562;2023-08-06T10:01:09;98965.69;;;26.75;59.52
73692;BME280;61996;49.910;35.562;2023-08-06T10:04:14;98970.88;;;26.77;59.61
73692;BME280;61996;49.910;35.562;2023-08-06T10:07:25;98964.47;;;26.78;59.54
73692;BME280;61996;49.910;35.562;2023-08-06T10:10:28;98964.25;;;26.80;59.35
73692;BME280;61996;49.910;35.562;2023-08-06T10:13:32;98961.34;;;26.81;59.40
73692;BME280;61996;49.910;35.562;2023-08-06T10:16:37;98957.00;;;26.87;60.31
73692;BME280;61996;49.910;35.562;2023-08-06T10:19:41;98954.91;;;26.89;59.57
73692;BME280;61996;49.910;35.562;2023-08-06T10:22:44;98952.66;;;26.86;59.84
73692;BME280;61996;49.910;35.562;2023-08-06T10:25:53;98949.94;;;26.86;59.50
73692;BME280;61996;49.910;35.562;2023-08-06T10:28:57;98951.59;;;26.87;59.84
73692;BME280;61996;49.910;35.562;2023-08-06T10:32:01;98944.13;;;26.89;59.72
73692;BME280;61996;49.910;35.562;2023-08-06T10:35:04;98942.03;;;26.91;59.62
73692;BME280;61996;49.910;35.562;2023-08-06T10:38:07;98936.47;;;26.92;59.68
73692;BME280;61996;49.910;35.562;2023-08-06T10:41:15;98928.97;;;26.94;59.87
73692;BME280;61996;49.910;35.562;2023-08-06T10:44:18;98924.41;;;26.95;59.97
73692;BME280;61996;49.910;35.562;2023-08-06T10:47:27;98922.53;;;26.95;59.75
73692;BME280;61996;49.910;35.562;2023-08-06T10:50:31;98921.53;;;27.10;59.98
73692;BME280;61996;49.910;35.562;2023-08-06T10:53:34;98917.13;;;27.02;59.75
73692;BME280;61996;49.910;35.562;2023-08-06T10:56:39;98913.63;;;27.01;59.77
73692;BME280;61996;49.910;35.562;2023-08-06T10:59:42;98906.13;;;27.03;59.74
73692;BME280;61996;49.910;35.562;2023-08-06T11:02:47;98904.94;;;27.06;59.48
73692;BME280;61996;49.910;35.562;2023-08-06T11:05:51;98907.19;;;27.09;59.45
73692;BME280;61996;49.910;35.562;2023-08-06T11:08:54;98893.50;;;27.11;59.32
73692;BME280;61996;49.910;35.562;2023-08-06T11:11:57;98896.00;;;27.12;59.27
73692;BME280;61996;49.910;35.562;2023-08-06T11:15:00;98888.28;;;27.16;59.05
73692;BME280;61996;49.910;35.562;2023-08-06T11:18:04;98896.16;;;27.17;59.10
73692;BME280;61996;49.910;35.562;2023-08-06T11:21:08;98883.31;;;27.19;59.03
73692;BME280;61996;49.910;35.562;2023-08-06T11:24:11;98881.22;;;27.21;59.27
73692;BME280;61996;49.910;35.562;2023-08-06T11:27:14;98876.22;;;27.25;58.94
73692;BME280;61996;49.910;35.562;2023-08-06T11:30:17;98865.22;;;27.26;58.92
73692;BME280;61996;49.910;35.562;2023-08-06T11:33:22;98856.91;;;27.28;59.22
73692;BME280;61996;49.910;35.562;2023-08-06T11:36:29;98851.91;;;27.31;58.95
73692;BME280;61996;49.910;35.562;2023-08-06T11:39:33;98852.53;;;27.34;58.99
73692;BME280;61996;49.910;35.562;2023-08-06T11:42:36;98847.75;;;27.36;58.86
73692;BME280;61996;49.910;35.562;2023-08-06T11:45:39;98846.25;;;27.40;58.57
73692;BME280;61996;49.910;35.562;2023-08-06T11:48:53;98842.75;;;27.39;58.69
73692;BME280;61996;49.910;35.562;2023-08-06T11:51:57;98835.06;;;27.43;58.65
73692;BME280;61996;49.910;35.562;2023-08-06T11:55:00;98842.31;;;27.42;58.90
73692;BME280;61996;49.910;35.562;2023-08-06T11:58:04;98830.25;;;27.45;58.75
73692;BME280;61996;49.910;35.562;2023-08-06T12:01:07;98827.16;;;27.48;58.67
73692;BME280;61996;49.910;35.562;2023-08-06T12:04:11;98836.25;;;27.47;58.68
73692;BME280;61996;49.910;35.562;2023-08-06T12:07:15;98833.16;;;27.50;58.47
73692;BME280;61996;49.910;35.562;2023-08-06T12:10:19;98824.00;;;27.51;58.60
73692;BME280;61996;49.910;35.562;2023-08-06T12:13:22;98827.94;;;27.55;58.51
73692;BME280;61996;49.910;35.562;2023-08-06T12:16:24;98820.66;;;27.55;58.40
73692;BME280;61996;49.910;35.562;2023-08-06T12:19:29;98822.97;;;27.52;58.60
73692;BME280;61996;49.910;35.562;2023-08-06T12:22:32;98823.97;;;27.57;58.52
73692;BME280;61996;49.910;35.562;2023-08-06T12:25:36;98828.53;;;27.64;58.39
73692;BME280;61996;49.910;35.562;2023-08-06T12:28:39;98824.16;;;27.63;58.45
73692;BME280;61996;49.910;35.562;2023-08-06T12:31:42;98812.53;;;27.62;58.39
73692;BME280;61996;49.910;35.562;2023-08-06T12:34:46;98809.84;;;27.62;58.35
73692;BME280;61996;49.910;35.562;2023-08-06T12:37:54;98814.78;;;27.65;58.29
73692;BME280;61996;49.910;35.562;2023-08-06T12:40:58;98805.88;;;27.65;58.37
73692;BME280;61996;49.910;35.562;2023-08-06T12:44:01;98799.19;;;27.67;58.18
73692;BME280;61996;49.910;35.562;2023-08-06T12:47:06;98803.38;;;27.70;58.21
73692;BME280;61996;49.910;35.562;2023-08-06T12:50:10;98791.09;;;27.67;58.20
73692;BME280;61996;49.910;35.562;2023-08-06T12:53:13;98791.94;;;27.68;58.06
73692;BME280;61996;49.910;35.562;2023-08-06T12:56:16;98793.78;;;27.67;58.30
73692;BME280;61996;49.910;35.562;2023-08-06T12:59:19;98794.22;;;27.64;58.50
73692;BME280;61996;49.910;35.562;2023-08-06T13:02:22;98801.50;;;27.70;58.33
73692;BME280;61996;49.910;35.562;2023-08-06T13:05:26;98789.25;;;27.68;58.48
73692;BME280;61996;49.910;35.562;2023-08-06T13:08:29;98790.06;;;27.75;58.14
73692;BME280;61996;49.910;35.562;2023-08-06T13:11:32;98783.19;;;27.72;58.39
73692;BME280;61996;49.910;35.562;2023-08-06T13:14:35;98790.88;;;27.75;58.13
73692;BME280;61996;49.910;35.562;2023-08-06T13:17:38;98776.75;;;27.73;58.21
73692;BME280;61996;49.910;35.562;2023-08-06T13:20:42;98773.44;;;27.71;57.97
73692;BME280;61996;49.910;35.562;2023-08-06T13:23:45;98778.63;;;27.73;58.22
73692;BME280;61996;49.910;35.562;2023-08-06T13:26:49;98778.22;;;27.76;58.01
73692;BME280;61996;49.910;35.562;2023-08-06T13:29:52;98771.75;;;27.77;58.12
73692;BME280;61996;49.910;35.562;2023-08-06T13:32:54;98776.31;;;27.76;58.27
73692;BME280;61996;49.910;35.562;2023-08-06T13:35:59;98761.50;;;27.85;57.91
73692;BME280;61996;49.910;35.562;2023-08-06T13:39:02;98759.66;;;27.79;58.37
73692;BME280;61996;49.910;35.562;2023-08-06T13:42:06;98756.94;;;27.86;57.95
73692;BME280;61996;49.910;35.562;2023-08-06T13:45:10;98755.88;;;27.87;57.49
73692;BME280;61996;49.910;35.562;2023-08-06T13:48:13;98750.69;;;27.85;57.48
73692;BME280;61996;49.910;35.562;2023-08-06T13:51:17;98749.66;;;27.86;57.67
73692;BME280;61996;49.910;35.562;2023-08-06T13:54:20;98748.59;;;27.88;57.47
73692;BME280;61996;49.910;35.562;2023-08-06T13:57:23;98746.53;;;27.90;57.41
73692;BME280;61996;49.910;35.562;2023-08-06T14:00:26;98750.66;;;27.92;57.70
73692;BME280;61996;49.910;35.562;2023-08-06T14:03:29;98744.41;;;27.92;57.52
73692;BME280;61996;49.910;35.562;2023-08-06T14:06:34;98744.19;;;27.93;57.05
73692;BME280;61996;49.910;35.562;2023-08-06T14:09:36;98744.19;;;27.93;57.13
73692;BME280;61996;49.910;35.562;2023-08-06T14:12:41;98736.91;;;27.94;57.44
73692;BME280;61996;49.910;35.562;2023-08-06T14:15:48;98742.09;;;27.95;57.24
73692;BME280;61996;49.910;35.562;2023-08-06T14:18:51;98738.13;;;27.98;56.98
73692;BME280;61996;49.910;35.562;2023-08-06T14:21:55;98736.50;;;27.97;57.34
73692;BME280;61996;49.910;35.562;2023-08-06T14:24:58;98735.66;;;27.96;57.13
73692;BME280;61996;49.910;35.562;2023-08-06T14:28:01;98733.16;;;27.95;57.18
73692;BME280;61996;49.910;35.562;2023-08-06T14:31:06;98741.44;;;28.00;56.98
73692;BME280;61996;49.910;35.562;2023-08-06T14:34:09;98726.88;;;28.01;56.97
73692;BME280;61996;49.910;35.562;2023-08-06T14:37:13;98741.84;;;28.03;56.87
73692;BME280;61996;49.910;35.562;2023-08-06T14:40:16;98730.63;;;28.00;56.71
73692;BME280;61996;49.910;35.562;2023-08-06T14:43:19;98730.22;;;28.03;56.79
73692;BME280;61996;49.910;35.562;2023-08-06T14:46:21;98738.31;;;28.03;56.86
73692;BME280;61996;49.910;35.562;2023-08-06T14:49:24;98721.88;;;28.04;56.81
73692;BME280;61996;49.910;35.562;2023-08-06T14:52:29;98720.59;;;28.07;56.59
73692;BME280;61996;49.910;35.562;2023-08-06T14:55:33;98713.53;;;28.06;56.65
73692;BME280;61996;49.910;35.562;2023-08-06T14:58:35;98711.88;;;28.05;56.63
73692;BME280;61996;49.910;35.562;2023-08-06T15:01:38;98714.13;;;28.08;56.57
73692;BME280;61996;49.910;35.562;2023-08-06T15:04:41;98711.44;;;28.08;56.51
73692;BME280;61996;49.910;35.562;2023-08-06T15:07:46;98714.97;;;28.08;56.52
73692;BME280;61996;49.910;35.562;2023-08-06T15:10:51;98707.09;;;28.07;56.60
73692;BME280;61996;49.910;35.562;2023-08-06T15:13:55;98708.13;;;28.06;56.56
73692;BME280;61996;49.910;35.562;2023-08-06T15:16:58;98706.03;;;28.08;56.38
73692;BME280;61996;49.910;35.562;2023-08-06T15:20:00;98704.97;;;28.09;56.32
73692;BME280;61996;49.910;35.562;2023-08-06T15:23:05;98708.53;;;28.09;56.44
73692;BME280;61996;49.910;35.562;2023-08-06T15:26:08;98707.69;;;28.09;56.34
73692;BME280;61996;49.910;35.562;2023-08-06T15:29:11;98705.19;;;28.07;56.29
73692;BME280;61996;49.910;35.562;2023-08-06T15:32:14;98711.44;;;28.08;56.63
73692;BME280;61996;49.910;35.562;2023-08-06T15:35:16;98696.91;;;28.02;56.54
73692;BME280;61996;49.910;35.562;2023-08-06T15:38:21;98705.88;;;28.03;56.69
73692;BME280;61996;49.910;35.562;2023-08-06T15:41:24;98700.47;;;28.03;56.50
73692;BME280;61996;49.910;35.562;2023-08-06T15:44:26;98702.72;;;28.06;56.17
73692;BME280;61996;49.910;35.562;2023-08-06T15:47:29;98706.72;;;28.03;56.87
73692;BME280;61996;49.910;35.562;2023-08-06T15:50:32;98706.47;;;28.05;56.49
73692;BME280;61996;49.910;35.562;2023-08-06T15:53:37;98700.69;;;28.01;56.39
73692;BME280;61996;49.910;35.562;2023-08-06T15:56:39;98703.19;;;28.03;56.65
73692;BME280;61996;49.910;35.562;2023-08-06T15:59:42;98702.13;;;28.04;56.89